PILOTS ONLINE: 220    ATC ONLINE: 22

KNXP

Twentynine Palms (Self) Airport

Location

City Twentynine Palms
Country  United States
Latitude 34° 17' 46" N
Longitude 116° 9' 43" W
Elevation 2051 ft
Type Medium Airport

Map

Weather

METAR
2014/09/02 08:56
KNXP 020856Z AUTO 30006KT 10SM CLR 27/01 A2988 RMK AO2 SLP078 T02720011 57000 
TAF
2014/09/02 03:09
TAF KNXP 0203/0303 VRB05KT 9999 SKC QNH2982INS 
      TEMPO 0203/0209 24012KT 
      BECMG 0220/0222 17010KT QNH2975INS AUTOMATED SENSOR METWATCH 0203 TIL 0315 T25/0212Z T37/0222Z

Runways

10/28 8015 ft / 150 ft

Outbound flights

Callsign Flying to Pilot ATD/STD ETA Aircraft

Inbound flights

Callsign Flying from Pilot ATD ETA Aircraft